createdAt,value
2023-02-24T00:02:22.274Z,11.49
2023-02-24T00:04:51.929Z,11.77
2023-02-24T00:07:23.542Z,11.88
2023-02-24T00:09:52.923Z,11.52
2023-02-24T00:12:24.548Z,11.36
2023-02-24T00:14:52.866Z,11.02
2023-02-24T00:17:27.817Z,11.67
2023-02-24T00:19:56.100Z,11.83
2023-02-24T00:22:26.894Z,10.72
2023-02-24T00:25:01.675Z,10.72
2023-02-24T00:27:42.841Z,10.97
2023-02-24T00:30:14.890Z,11.46
2023-02-24T00:32:44.620Z,11.88
2023-02-24T00:35:12.539Z,11.89
2023-02-24T00:37:40.352Z,12.24
2023-02-24T00:40:13.201Z,12.35
2023-02-24T00:42:43.107Z,11.74
2023-02-24T00:45:16.766Z,12.25
2023-02-24T00:47:47.510Z,12.71
2023-02-24T00:50:22.519Z,12.30
2023-02-24T00:52:53.380Z,12.24
2023-02-24T00:55:25.419Z,11.64
2023-02-24T00:57:54.913Z,11.83
2023-02-24T01:00:23.611Z,12.28
2023-02-24T01:02:52.885Z,12.37
2023-02-24T01:05:30.120Z,11.45
2023-02-24T01:08:21.700Z,11.24
2023-02-24T01:11:17.306Z,11.38
2023-02-24T01:13:46.200Z,11.59
2023-02-24T01:16:19.726Z,11.81
2023-02-24T01:18:53.427Z,11.10
2023-02-24T01:21:25.094Z,11.21
2023-02-24T01:23:56.157Z,11.42
2023-02-24T01:26:26.152Z,11.61
2023-02-24T01:28:56.445Z,11.37
2023-02-24T01:31:28.792Z,6.22
2023-02-24T01:33:56.818Z,11.97
2023-02-24T01:36:27.810Z,11.98
2023-02-24T01:38:57.991Z,11.66
2023-02-24T01:41:30.797Z,11.87
2023-02-24T01:44:09.738Z,12.13
2023-02-24T01:46:39.000Z,12.70
2023-02-24T01:49:09.984Z,12.89
2023-02-24T01:51:44.970Z,12.75
2023-02-24T01:54:17.126Z,12.60
2023-02-24T01:56:48.326Z,12.67
2023-02-24T01:59:19.946Z,12.63
2023-02-24T02:01:48.598Z,12.19
2023-02-24T02:04:36.566Z,11.75
2023-02-24T02:07:04.908Z,11.91
2023-02-24T02:09:34.196Z,12.07
2023-02-24T02:12:09.534Z,12.55
2023-02-24T02:14:50.157Z,11.87
2023-02-24T02:17:26.600Z,12.54
2023-02-24T02:20:16.856Z,12.70
2023-02-24T02:23:06.850Z,12.74
2023-02-24T02:25:49.675Z,11.87
2023-02-24T02:28:38.603Z,11.99
2023-02-24T02:31:46.768Z,12.45
2023-02-24T02:34:23.747Z,12.30
2023-02-24T02:37:02.740Z,12.52
2023-02-24T02:39:48.921Z,12.40
2023-02-24T02:42:28.163Z,12.17
2023-02-24T02:45:05.198Z,12.06
2023-02-24T02:47:37.099Z,12.33
2023-02-24T02:50:12.019Z,12.15
2023-02-24T02:52:42.637Z,11.75
2023-02-24T02:55:14.115Z,12.52
2023-02-24T02:57:48.422Z,11.95
2023-02-24T03:00:21.548Z,12.02
2023-02-24T03:02:55.409Z,11.57
2023-02-24T03:05:37.323Z,12.18
2023-02-24T03:08:12.252Z,12.84
2023-02-24T03:10:44.770Z,12.87
2023-02-24T03:13:16.827Z,13.02
2023-02-24T03:15:45.910Z,13.09
2023-02-24T03:18:19.175Z,12.19
2023-02-24T03:20:52.898Z,12.69
2023-02-24T03:23:27.061Z,13.18
2023-02-24T03:26:00.096Z,12.63
2023-02-24T03:28:37.440Z,12.85
2023-02-24T03:31:18.725Z,11.76
2023-02-24T03:33:51.864Z,12.25
2023-02-24T03:36:23.371Z,12.55
2023-02-24T03:38:58.333Z,11.88
2023-02-24T03:41:30.438Z,11.15
2023-02-24T03:43:59.813Z,10.52
2023-02-24T03:46:30.439Z,11.04
2023-02-24T03:49:08.702Z,10.56
2023-02-24T03:51:44.896Z,11.75
2023-02-24T03:54:21.137Z,11.67
2023-02-24T03:57:00.095Z,12.20
2023-02-24T03:59:39.958Z,12.02
2023-02-24T04:02:14.370Z,12.38
2023-02-24T04:04:46.500Z,12.25
2023-02-24T04:07:18.889Z,11.31
2023-02-24T04:09:51.943Z,10.97
2023-02-24T04:12:25.595Z,10.57
2023-02-24T04:14:57.937Z,10.65
2023-02-24T04:17:28.602Z,10.96
2023-02-24T04:20:02.637Z,10.86
2023-02-24T04:22:42.616Z,10.98
2023-02-24T04:25:15.822Z,11.65
2023-02-24T04:27:44.883Z,11.97
2023-02-24T04:30:21.745Z,11.91
2023-02-24T04:32:54.329Z,11.66
2023-02-24T04:35:25.395Z,11.63
2023-02-24T04:37:58.046Z,11.78
2023-02-24T04:40:28.961Z,11.36
2023-02-24T04:42:57.222Z,11.07
2023-02-24T04:45:31.966Z,10.71
2023-02-24T04:48:03.990Z,10.77
2023-02-24T04:50:34.077Z,10.50
2023-02-24T04:53:09.187Z,11.05
2023-02-24T04:55:49.934Z,11.17
2023-02-24T04:58:20.694Z,10.62
2023-02-24T05:00:52.761Z,10.37
2023-02-24T05:03:28.637Z,10.02
2023-02-24T05:06:00.324Z,10.26
2023-02-24T05:08:32.327Z,9.93
2023-02-24T05:11:05.195Z,9.72
2023-02-24T05:13:34.423Z,10.71
2023-02-24T05:16:09.465Z,9.46
2023-02-24T05:18:40.958Z,11.46
2023-02-24T05:21:30.887Z,12.02
2023-02-24T05:24:04.663Z,11.72
2023-02-24T05:26:33.999Z,12.11
2023-02-24T05:29:06.832Z,12.39
2023-02-24T05:31:34.923Z,11.84
2023-02-24T05:34:03.926Z,11.86
2023-02-24T05:36:33.863Z,11.71
2023-02-24T05:39:07.477Z,11.97
2023-02-24T05:41:39.208Z,11.98
2023-02-24T05:44:10.438Z,11.65
2023-02-24T05:46:41.585Z,11.57
2023-02-24T05:49:14.504Z,12.51
2023-02-24T05:51:47.245Z,12.39
2023-02-24T05:54:24.157Z,12.30
2023-02-24T05:56:54.648Z,12.18
2023-02-24T05:59:23.259Z,12.40
2023-02-24T06:01:53.770Z,11.37
2023-02-24T06:04:39.667Z,10.66
2023-02-24T06:07:09.176Z,10.95
2023-02-24T06:09:40.815Z,10.84
2023-02-24T06:12:09.188Z,10.93
2023-02-24T06:14:37.623Z,11.38
2023-02-24T06:17:06.729Z,11.36
2023-02-24T06:19:38.629Z,10.43
2023-02-24T06:22:10.892Z,10.64
2023-02-24T06:24:44.206Z,10.18
2023-02-24T06:27:17.910Z,9.99
2023-02-24T06:29:50.091Z,9.80
2023-02-24T06:32:23.512Z,9.23
2023-02-24T06:34:54.611Z,10.26
2023-02-24T06:37:24.160Z,10.38
2023-02-24T06:39:53.946Z,11.52
2023-02-24T06:42:22.079Z,11.08
2023-02-24T06:44:50.446Z,10.92
2023-02-24T06:47:19.700Z,11.18
2023-02-24T06:49:48.617Z,11.71
2023-02-24T06:52:19.316Z,11.73
2023-02-24T06:54:50.719Z,11.65
2023-02-24T06:57:23.705Z,11.88
2023-02-24T06:59:52.380Z,12.12
2023-02-24T07:02:20.525Z,12.25
2023-02-24T07:04:51.765Z,11.88
2023-02-24T07:07:19.918Z,10.41
2023-02-24T07:09:48.227Z,11.37
2023-02-24T07:12:21.274Z,11.51
2023-02-24T07:14:51.338Z,12.18
2023-02-24T07:17:22.299Z,12.25
2023-02-24T07:19:50.233Z,11.47
2023-02-24T07:22:25.566Z,11.02
2023-02-24T07:25:00.662Z,11.84
2023-02-24T07:27:28.955Z,12.10
2023-02-24T07:30:01.559Z,12.33
2023-02-24T07:32:31.226Z,11.90
2023-02-24T07:34:59.660Z,11.84
2023-02-24T07:37:31.924Z,11.99
2023-02-24T07:39:59.826Z,12.47
2023-02-24T07:42:30.788Z,11.89
2023-02-24T07:45:00.549Z,12.17
2023-02-24T07:47:29.421Z,12.34
2023-02-24T07:49:57.294Z,12.75
2023-02-24T07:52:28.247Z,12.79
2023-02-24T07:54:56.215Z,12.98
2023-02-24T07:57:25.213Z,12.59
2023-02-24T07:59:57.690Z,12.58
2023-02-24T08:02:30.239Z,12.53
2023-02-24T08:05:03.264Z,12.06
2023-02-24T08:07:33.409Z,11.97
2023-02-24T08:10:25.396Z,11.87
2023-02-24T08:13:03.500Z,11.38
2023-02-24T08:15:34.552Z,10.28
2023-02-24T08:18:06.765Z,11.70
2023-02-24T08:20:52.504Z,11.64
2023-02-24T08:23:23.650Z,12.28
2023-02-24T08:25:51.894Z,11.19
2023-02-24T08:28:19.984Z,11.02
2023-02-24T08:30:56.985Z,12.10
2023-02-24T08:33:30.225Z,11.72
2023-02-24T08:36:02.708Z,11.72
2023-02-24T08:38:41.925Z,11.68
2023-02-24T08:41:19.124Z,12.01
2023-02-24T08:43:51.497Z,12.08
2023-02-24T08:46:28.737Z,11.63
2023-02-24T08:49:00.888Z,12.68
2023-02-24T08:51:43.815Z,12.98
2023-02-24T08:54:15.648Z,12.51
2023-02-24T08:56:50.246Z,12.13
2023-02-24T08:59:38.855Z,12.50
2023-02-24T09:02:24.702Z,12.97
2023-02-24T09:04:56.146Z,13.34
2023-02-24T09:07:28.878Z,13.92
2023-02-24T09:09:57.547Z,14.20
2023-02-24T09:12:32.941Z,13.76
2023-02-24T09:15:06.372Z,13.52
2023-02-24T09:17:52.227Z,13.99
2023-02-24T09:20:41.319Z,13.44
2023-02-24T09:23:25.152Z,13.97
2023-02-24T09:25:54.375Z,13.17
2023-02-24T09:28:26.924Z,13.24
2023-02-24T09:30:59.386Z,11.31
2023-02-24T09:33:29.094Z,12.38
2023-02-24T09:36:10.931Z,12.24
2023-02-24T09:39:00.013Z,12.07
2023-02-24T09:41:33.442Z,11.59
2023-02-24T09:44:08.636Z,11.88
2023-02-24T09:46:54.377Z,11.40
2023-02-24T09:49:26.313Z,11.10
2023-02-24T09:52:00.926Z,11.86
2023-02-24T09:54:36.379Z,12.58
2023-02-24T09:57:10.700Z,11.27
2023-02-24T10:00:01.348Z,11.58
2023-02-24T10:02:44.216Z,11.75
2023-02-24T10:05:24.935Z,12.18
2023-02-24T10:08:00.132Z,12.45
2023-02-24T10:10:35.909Z,12.29
2023-02-24T10:13:14.915Z,12.36
2023-02-24T10:16:07.319Z,12.54
2023-02-24T10:18:41.907Z,12.91
2023-02-24T10:21:21.116Z,11.96
2023-02-24T10:24:03.626Z,10.91
2023-02-24T10:26:59.547Z,10.76
2023-02-24T10:29:50.934Z,10.67
2023-02-24T10:32:34.698Z,10.57
2023-02-24T10:35:16.510Z,11.16
2023-02-24T10:37:44.985Z,10.48
2023-02-24T10:40:26.499Z,10.69
2023-02-24T10:43:10.767Z,10.59
2023-02-24T10:45:50.862Z,10.26
2023-02-24T10:48:40.299Z,10.64
2023-02-24T10:51:20.101Z,10.26
2023-02-24T10:54:09.684Z,10.44
2023-02-24T10:56:59.309Z,11.03
2023-02-24T10:59:58.670Z,11.78
2023-02-24T11:02:33.146Z,12.47
2023-02-24T11:05:27.065Z,12.08
2023-02-24T11:08:12.478Z,11.72
2023-02-24T11:10:58.762Z,11.11
2023-02-24T11:13:45.791Z,10.39
2023-02-24T11:16:31.070Z,10.77
2023-02-24T11:19:07.224Z,11.09
2023-02-24T11:21:38.928Z,11.66
2023-02-24T11:24:12.682Z,11.20
2023-02-24T11:26:46.255Z,11.25
2023-02-24T11:29:38.147Z,12.06
2023-02-24T11:32:18.396Z,11.76
2023-02-24T11:34:52.806Z,10.78
2023-02-24T11:37:34.686Z,11.10
2023-02-24T11:40:05.658Z,12.68
2023-02-24T11:42:38.808Z,12.94
2023-02-24T11:45:18.789Z,12.05
2023-02-24T11:47:54.032Z,12.31
2023-02-24T11:50:31.127Z,12.58
2023-02-24T11:53:01.387Z,11.83
2023-02-24T11:55:36.202Z,12.00
2023-02-24T11:58:08.666Z,13.03
2023-02-24T12:00:40.366Z,12.64
2023-02-24T12:03:19.367Z,12.89
2023-02-24T12:05:51.664Z,12.95
2023-02-24T12:08:28.388Z,13.03
2023-02-24T12:11:07.526Z,12.02
2023-02-24T12:13:40.713Z,13.10
2023-02-24T12:16:16.964Z,13.05
2023-02-24T12:18:48.037Z,12.53
2023-02-24T12:21:22.906Z,13.25
2023-02-24T12:23:53.832Z,13.23
2023-02-24T12:26:27.238Z,13.15
2023-02-24T12:29:11.004Z,12.88
2023-02-24T12:31:53.859Z,12.17
2023-02-24T12:34:39.326Z,11.31
2023-02-24T12:37:26.171Z,12.91
2023-02-24T12:40:03.451Z,12.86
2023-02-24T12:42:39.517Z,13.21
2023-02-24T12:45:13.612Z,13.91
2023-02-24T12:47:58.262Z,13.50
2023-02-24T12:50:34.108Z,13.56
2023-02-24T12:53:07.682Z,13.49
2023-02-24T12:55:46.985Z,12.52
2023-02-24T12:58:19.154Z,12.95
2023-02-24T13:00:59.530Z,12.64
2023-02-24T13:03:39.451Z,12.10
2023-02-24T13:06:14.133Z,12.53
2023-02-24T13:08:56.770Z,12.39
2023-02-24T13:11:33.834Z,13.09
2023-02-24T13:14:05.292Z,12.79
2023-02-24T13:16:39.726Z,12.85
2023-02-24T13:19:20.909Z,12.97
2023-02-24T13:22:03.328Z,12.63
2023-02-24T13:24:31.277Z,12.52
2023-02-24T13:27:08.916Z,12.26
2023-02-24T13:29:45.268Z,12.13
2023-02-24T13:32:32.863Z,11.88
2023-02-24T13:35:05.448Z,12.05
2023-02-24T13:37:36.718Z,12.87
2023-02-24T13:40:24.405Z,12.43
2023-02-24T13:43:01.455Z,12.81
2023-02-24T13:45:33.677Z,12.95
2023-02-24T13:48:17.813Z,12.91
2023-02-24T13:50:59.500Z,12.03
2023-02-24T13:53:51.142Z,12.39
2023-02-24T13:56:42.188Z,12.55
2023-02-24T13:59:21.842Z,12.51
2023-02-24T14:02:01.229Z,12.98
2023-02-24T14:04:32.814Z,12.35
2023-02-24T14:07:05.324Z,11.86
2023-02-24T14:09:35.718Z,12.28
2023-02-24T14:12:07.227Z,11.50
2023-02-24T14:14:36.525Z,12.28
2023-02-24T14:17:10.358Z,12.30
2023-02-24T14:19:39.158Z,12.54
2023-02-24T14:22:20.977Z,11.68
2023-02-24T14:24:55.323Z,11.90
2023-02-24T14:27:26.567Z,12.00
2023-02-24T14:29:55.276Z,12.19
2023-02-24T14:32:25.243Z,12.18
2023-02-24T14:34:54.783Z,11.88
2023-02-24T14:37:31.952Z,11.57
2023-02-24T14:40:05.949Z,11.56
2023-02-24T14:42:34.486Z,12.29
2023-02-24T14:45:06.294Z,11.39
2023-02-24T14:47:43.165Z,12.02
2023-02-24T14:50:20.520Z,11.97
2023-02-24T14:52:53.156Z,11.74
2023-02-24T14:55:28.086Z,11.63
2023-02-24T14:58:00.303Z,10.17
2023-02-24T15:00:31.565Z,11.83
2023-02-24T15:03:05.821Z,12.10
2023-02-24T15:05:44.646Z,9.89
2023-02-24T15:08:37.443Z,11.95
2023-02-24T15:11:12.425Z,12.51
2023-02-24T15:13:44.439Z,11.59
2023-02-24T15:16:15.847Z,11.97
2023-02-24T15:18:43.952Z,12.09
2023-02-24T15:21:21.191Z,12.02
2023-02-24T15:24:19.014Z,8.55
2023-02-24T15:26:56.863Z,12.00
2023-02-24T15:29:27.125Z,11.75
2023-02-24T15:31:56.140Z,11.84
2023-02-24T15:34:26.511Z,12.03
2023-02-24T15:36:59.025Z,11.34
2023-02-24T15:39:33.435Z,11.28
2023-02-24T15:42:08.544Z,11.82
2023-02-24T15:44:37.099Z,11.97
2023-02-24T15:47:20.736Z,11.24
2023-02-24T15:49:48.545Z,11.23
2023-02-24T15:52:23.283Z,11.14
2023-02-24T15:54:58.052Z,12.25
2023-02-24T15:57:27.900Z,11.97
2023-02-24T15:59:55.752Z,12.12
2023-02-24T16:02:24.609Z,11.48
2023-02-24T16:04:53.346Z,12.06
2023-02-24T16:07:26.306Z,11.88
2023-02-24T16:09:58.296Z,11.67
2023-02-24T16:12:34.867Z,11.15
2023-02-24T16:15:04.430Z,11.77
2023-02-24T16:17:37.979Z,11.26
2023-02-24T16:20:09.342Z,11.37
2023-02-24T16:22:37.287Z,11.45
2023-02-24T16:25:07.597Z,11.13
2023-02-24T16:27:37.754Z,11.57
2023-02-24T16:30:07.337Z,11.24
2023-02-24T16:32:35.617Z,10.87
2023-02-24T16:35:05.733Z,11.53
2023-02-24T16:37:36.184Z,11.35
2023-02-24T16:40:10.609Z,10.90
2023-02-24T16:42:40.483Z,10.79
2023-02-24T16:45:14.383Z,11.11
2023-02-24T16:47:43.121Z,11.00
2023-02-24T16:50:19.915Z,10.75
2023-02-24T16:52:47.842Z,10.58
2023-02-24T16:55:18.909Z,10.42
2023-02-24T16:57:48.844Z,10.38
2023-02-24T17:00:18.376Z,10.71
2023-02-24T17:02:50.178Z,10.90
2023-02-24T17:05:20.420Z,10.90
2023-02-24T17:07:49.314Z,10.77
2023-02-24T17:10:17.807Z,10.50
2023-02-24T17:12:46.342Z,10.25
2023-02-24T17:15:17.518Z,10.61
2023-02-24T17:17:47.728Z,10.05
2023-02-24T17:20:17.402Z,10.80
2023-02-24T17:22:45.830Z,10.61
2023-02-24T17:25:22.456Z,10.65
2023-02-24T17:27:53.375Z,10.22
2023-02-24T17:30:26.992Z,10.11
2023-02-24T17:32:55.350Z,10.21
2023-02-24T17:35:24.139Z,10.23
2023-02-24T17:37:56.628Z,10.01
2023-02-24T17:40:24.930Z,10.06
2023-02-24T17:42:53.021Z,10.60
2023-02-24T17:45:28.409Z,10.25
2023-02-24T17:48:07.150Z,10.52
2023-02-24T17:50:40.573Z,10.45
2023-02-24T17:53:10.675Z,10.59
2023-02-24T17:56:01.119Z,10.66
2023-02-24T17:58:34.789Z,9.90
2023-02-24T18:01:07.739Z,10.67
2023-02-24T18:03:36.781Z,10.62
2023-02-24T18:06:10.516Z,10.89
2023-02-24T18:08:41.674Z,10.97
2023-02-24T18:11:13.372Z,10.66
2023-02-24T18:13:41.161Z,11.37
2023-02-24T18:16:12.953Z,10.79
2023-02-24T18:18:41.178Z,10.49
2023-02-24T18:21:10.877Z,10.15
2023-02-24T18:23:41.813Z,10.68
2023-02-24T18:26:16.717Z,10.21
2023-02-24T18:28:44.519Z,10.69
2023-02-24T18:31:16.328Z,10.73
2023-02-24T18:33:44.674Z,10.66
2023-02-24T18:36:13.431Z,9.98
2023-02-24T18:38:41.749Z,10.22
2023-02-24T18:41:12.411Z,10.19
2023-02-24T18:43:42.868Z,9.72
2023-02-24T18:46:18.633Z,10.21
2023-02-24T18:48:49.833Z,10.14
2023-02-24T18:51:19.739Z,10.05
2023-02-24T18:53:48.517Z,9.91
2023-02-24T18:56:21.893Z,10.18
2023-02-24T18:58:51.540Z,10.33
2023-02-24T19:01:33.261Z,10.46
2023-02-24T19:04:04.395Z,10.20
2023-02-24T19:06:47.164Z,9.80
2023-02-24T19:09:15.308Z,10.40
2023-02-24T19:11:43.480Z,9.64
2023-02-24T19:14:15.940Z,9.85
2023-02-24T19:16:45.705Z,9.98
2023-02-24T19:19:14.864Z,9.95
2023-02-24T19:21:46.184Z,9.89
2023-02-24T19:24:14.564Z,9.80
2023-02-24T19:26:47.650Z,9.19
2023-02-24T19:29:17.557Z,9.50
2023-02-24T19:31:47.124Z,9.68
2023-02-24T19:34:16.159Z,9.26
2023-02-24T19:36:50.763Z,9.83
2023-02-24T19:39:18.953Z,9.43
2023-02-24T19:41:54.486Z,9.48
2023-02-24T19:44:22.683Z,8.89
2023-02-24T19:46:55.250Z,8.86
2023-02-24T19:49:25.937Z,8.61
2023-02-24T19:51:55.049Z,8.58
2023-02-24T19:54:25.705Z,8.34
2023-02-24T19:56:57.163Z,8.66
2023-02-24T19:59:25.474Z,8.45
2023-02-24T20:01:55.262Z,9.01
2023-02-24T20:04:40.524Z,8.98
2023-02-24T20:07:11.838Z,8.62
2023-02-24T20:09:42.106Z,8.68
2023-02-24T20:12:12.692Z,9.38
2023-02-24T20:14:41.225Z,8.94
2023-02-24T20:17:15.310Z,8.69
2023-02-24T20:19:43.665Z,9.35
2023-02-24T20:22:13.560Z,9.68
2023-02-24T20:24:42.812Z,9.35
2023-02-24T20:27:12.294Z,9.39
2023-02-24T20:29:41.606Z,9.23
2023-02-24T20:32:11.537Z,9.32
2023-02-24T20:34:40.122Z,8.31
2023-02-24T20:37:08.092Z,8.66
2023-02-24T20:39:44.230Z,8.40
2023-02-24T20:42:12.528Z,8.43
2023-02-24T20:44:45.074Z,8.38
2023-02-24T20:47:21.770Z,7.72
2023-02-24T20:49:52.736Z,8.36
2023-02-24T20:52:20.619Z,8.72
2023-02-24T20:54:49.496Z,8.09
2023-02-24T20:57:17.762Z,8.70
2023-02-24T21:00:01.492Z,7.99
2023-02-24T21:02:32.610Z,8.68
2023-02-24T21:05:03.178Z,7.92
2023-02-24T21:07:32.746Z,8.05
2023-02-24T21:10:00.736Z,8.37
2023-02-24T21:12:28.679Z,8.94
2023-02-24T21:14:57.705Z,8.42
2023-02-24T21:17:25.682Z,8.27
2023-02-24T21:19:56.794Z,8.43
2023-02-24T21:22:27.223Z,8.76
2023-02-24T21:24:58.162Z,8.52
2023-02-24T21:27:27.450Z,8.00
2023-02-24T21:29:57.320Z,7.21
2023-02-24T21:32:28.011Z,7.49
2023-02-24T21:35:05.082Z,7.24
2023-02-24T21:37:35.171Z,6.66
2023-02-24T21:40:10.871Z,6.54
2023-02-24T21:42:47.669Z,6.92
2023-02-24T21:45:21.448Z,6.46
2023-02-24T21:47:49.611Z,6.64
2023-02-24T21:50:21.760Z,5.69
2023-02-24T21:52:52.064Z,5.96
2023-02-24T21:55:23.502Z,6.40
2023-02-24T21:57:53.966Z,6.24
2023-02-24T22:00:24.196Z,6.11
2023-02-24T22:02:54.471Z,6.21
2023-02-24T22:05:25.368Z,6.29
2023-02-24T22:07:54.322Z,5.87
2023-02-24T22:10:24.252Z,5.94
2023-02-24T22:12:55.229Z,5.74
2023-02-24T22:15:24.266Z,6.19
2023-02-24T22:17:54.486Z,6.43
2023-02-24T22:20:23.824Z,6.06
2023-02-24T22:22:51.729Z,6.70
2023-02-24T22:25:20.710Z,7.55
2023-02-24T22:27:48.689Z,7.90
2023-02-24T22:30:16.617Z,8.01
2023-02-24T22:32:47.301Z,8.24
2023-02-24T22:35:17.683Z,8.31
2023-02-24T22:37:46.976Z,8.26
2023-02-24T22:40:20.807Z,7.27
2023-02-24T22:42:51.736Z,7.34
2023-02-24T22:45:20.821Z,7.61
2023-02-24T22:47:48.725Z,8.18
2023-02-24T22:50:16.986Z,7.70
2023-02-24T22:52:48.974Z,7.84
2023-02-24T22:55:24.082Z,8.13
2023-02-24T22:57:58.174Z,6.91
2023-02-24T23:00:26.332Z,8.04
2023-02-24T23:02:54.133Z,8.25
2023-02-24T23:05:22.489Z,9.10
2023-02-24T23:07:51.673Z,9.10
2023-02-24T23:10:19.653Z,8.95
2023-02-24T23:12:48.744Z,9.07
2023-02-24T23:15:20.131Z,8.70
2023-02-24T23:17:51.451Z,8.97
2023-02-24T23:20:20.133Z,8.97
2023-02-24T23:23:05.601Z,8.94
2023-02-24T23:25:36.372Z,9.49
2023-02-24T23:28:05.270Z,9.44
2023-02-24T23:30:43.451Z,8.77
2023-02-24T23:33:12.260Z,8.94
2023-02-24T23:35:46.495Z,9.06
2023-02-24T23:38:18.467Z,8.93
2023-02-24T23:40:50.433Z,8.48
2023-02-24T23:43:23.804Z,9.19
2023-02-24T23:45:51.612Z,8.97
2023-02-24T23:48:24.986Z,9.41
2023-02-24T23:50:57.220Z,9.27
2023-02-24T23:53:26.645Z,8.70
2023-02-24T23:55:54.557Z,9.30
2023-02-24T23:58:26.593Z,9.14
